sensor_id;sensor_type;location;lat;lon;timestamp;P1;durP1;ratioP1;P2;durP2;ratioP2
8066;SDS011;4076;48.076;9.118;2024-01-10T00:01:42;26.57;;;17.10;;
8066;SDS011;4076;48.076;9.118;2024-01-10T00:04:08;32.03;;;17.57;;
8066;SDS011;4076;48.076;9.118;2024-01-10T00:06:34;26.77;;;16.20;;
8066;SDS011;4076;48.076;9.118;2024-01-10T00:09:00;26.00;;;18.40;;
8066;SDS011;4076;48.076;9.118;2024-01-10T00:11:25;33.43;;;18.03;;
8066;SDS011;4076;48.076;9.118;2024-01-10T00:13:51;27.47;;;17.50;;
8066;SDS011;4076;48.076;9.118;2024-01-10T00:16:16;28.27;;;17.33;;
8066;SDS011;4076;48.076;9.118;2024-01-10T00:18:42;28.63;;;18.77;;
8066;SDS011;4076;48.076;9.118;2024-01-10T00:21:08;26.70;;;15.00;;
8066;SDS011;4076;48.076;9.118;2024-01-10T00:23:33;27.70;;;15.50;;
8066;SDS011;4076;48.076;9.118;2024-01-10T00:25:59;28.53;;;16.20;;
8066;SDS011;4076;48.076;9.118;2024-01-10T00:28:25;26.00;;;15.70;;
8066;SDS011;4076;48.076;9.118;2024-01-10T00:30:50;34.80;;;18.17;;
8066;SDS011;4076;48.076;9.118;2024-01-10T00:33:16;30.80;;;18.10;;
8066;SDS011;4076;48.076;9.118;2024-01-10T00:35:42;28.77;;;17.23;;
8066;SDS011;4076;48.076;9.118;2024-01-10T00:38:08;23.80;;;15.60;;
8066;SDS011;4076;48.076;9.118;2024-01-10T00:40:34;34.23;;;17.47;;
8066;SDS011;4076;48.076;9.118;2024-01-10T00:42:59;33.70;;;19.07;;
8066;SDS011;4076;48.076;9.118;2024-01-10T00:45:25;32.00;;;17.47;;
8066;SDS011;4076;48.076;9.118;2024-01-10T00:47:51;27.63;;;18.20;;
8066;SDS011;4076;48.076;9.118;2024-01-10T00:50:17;33.67;;;18.30;;
8066;SDS011;4076;48.076;9.118;2024-01-10T00:52:43;35.00;;;18.67;;
8066;SDS011;4076;48.076;9.118;2024-01-10T00:55:10;27.27;;;15.70;;
8066;SDS011;4076;48.076;9.118;2024-01-10T00:57:35;23.30;;;17.33;;
8066;SDS011;4076;48.076;9.118;2024-01-10T01:00:03;36.40;;;17.57;;
8066;SDS011;4076;48.076;9.118;2024-01-10T01:02:30;27.07;;;19.17;;
8066;SDS011;4076;48.076;9.118;2024-01-10T01:04:55;41.90;;;22.50;;
8066;SDS011;4076;48.076;9.118;2024-01-10T01:07:21;28.83;;;17.67;;
8066;SDS011;4076;48.076;9.118;2024-01-10T01:09:46;27.23;;;19.20;;
8066;SDS011;4076;48.076;9.118;2024-01-10T01:12:12;24.83;;;16.93;;
8066;SDS011;4076;48.076;9.118;2024-01-10T01:14:37;26.43;;;16.20;;
8066;SDS011;4076;48.076;9.118;2024-01-10T01:17:03;39.43;;;17.93;;
8066;SDS011;4076;48.076;9.118;2024-01-10T01:19:29;34.00;;;18.87;;
8066;SDS011;4076;48.076;9.118;2024-01-10T01:21:54;36.10;;;20.20;;
8066;SDS011;4076;48.076;9.118;2024-01-10T01:24:20;40.73;;;23.90;;
8066;SDS011;4076;48.076;9.118;2024-01-10T01:26:45;54.90;;;27.50;;
8066;SDS011;4076;48.076;9.118;2024-01-10T01:29:11;45.50;;;21.03;;
8066;SDS011;4076;48.076;9.118;2024-01-10T01:31:36;34.77;;;17.70;;
8066;SDS011;4076;48.076;9.118;2024-01-10T01:34:03;33.50;;;18.80;;
8066;SDS011;4076;48.076;9.118;2024-01-10T01:36:28;29.60;;;16.60;;
8066;SDS011;4076;48.076;9.118;2024-01-10T01:38:54;40.60;;;23.20;;
8066;SDS011;4076;48.076;9.118;2024-01-10T01:41:19;50.07;;;25.90;;
8066;SDS011;4076;48.076;9.118;2024-01-10T01:43:45;51.17;;;25.53;;
8066;SDS011;4076;48.076;9.118;2024-01-10T01:46:11;40.80;;;22.43;;
8066;SDS011;4076;48.076;9.118;2024-01-10T01:48:37;32.67;;;20.10;;
8066;SDS011;4076;48.076;9.118;2024-01-10T01:51:04;39.30;;;21.23;;
8066;SDS011;4076;48.076;9.118;2024-01-10T01:53:31;30.07;;;19.63;;
8066;SDS011;4076;48.076;9.118;2024-01-10T01:56:02;31.23;;;19.10;;
8066;SDS011;4076;48.076;9.118;2024-01-10T01:58:31;24.80;;;15.50;;
8066;SDS011;4076;48.076;9.118;2024-01-10T02:00:57;26.60;;;17.17;;
8066;SDS011;4076;48.076;9.118;2024-01-10T02:03:24;29.60;;;19.50;;
8066;SDS011;4076;48.076;9.118;2024-01-10T02:05:51;38.00;;;22.00;;
8066;SDS011;4076;48.076;9.118;2024-01-10T02:08:17;22.63;;;15.87;;
8066;SDS011;4076;48.076;9.118;2024-01-10T02:10:43;28.40;;;16.90;;
8066;SDS011;4076;48.076;9.118;2024-01-10T02:13:08;34.43;;;20.40;;
8066;SDS011;4076;48.076;9.118;2024-01-10T02:15:36;32.20;;;19.50;;
8066;SDS011;4076;48.076;9.118;2024-01-10T02:18:03;27.77;;;17.20;;
8066;SDS011;4076;48.076;9.118;2024-01-10T02:20:30;30.40;;;18.53;;
8066;SDS011;4076;48.076;9.118;2024-01-10T02:22:56;26.90;;;16.07;;
8066;SDS011;4076;48.076;9.118;2024-01-10T02:25:21;30.43;;;17.93;;
8066;SDS011;4076;48.076;9.118;2024-01-10T02:27:47;37.27;;;20.57;;
8066;SDS011;4076;48.076;9.118;2024-01-10T02:30:13;37.83;;;19.60;;
8066;SDS011;4076;48.076;9.118;2024-01-10T02:32:39;35.43;;;20.57;;
8066;SDS011;4076;48.076;9.118;2024-01-10T02:35:05;34.73;;;21.93;;
8066;SDS011;4076;48.076;9.118;2024-01-10T02:37:31;33.50;;;20.63;;
8066;SDS011;4076;48.076;9.118;2024-01-10T02:39:56;35.90;;;20.67;;
8066;SDS011;4076;48.076;9.118;2024-01-10T02:42:22;34.10;;;23.00;;
8066;SDS011;4076;48.076;9.118;2024-01-10T02:44:47;28.40;;;18.63;;
8066;SDS011;4076;48.076;9.118;2024-01-10T02:47:13;23.10;;;16.60;;
8066;SDS011;4076;48.076;9.118;2024-01-10T02:49:39;35.67;;;20.13;;
8066;SDS011;4076;48.076;9.118;2024-01-10T02:52:04;39.67;;;21.60;;
8066;SDS011;4076;48.076;9.118;2024-01-10T02:54:30;30.50;;;17.30;;
8066;SDS011;4076;48.076;9.118;2024-01-10T02:56:56;36.97;;;20.47;;
8066;SDS011;4076;48.076;9.118;2024-01-10T02:59:21;24.33;;;17.03;;
8066;SDS011;4076;48.076;9.118;2024-01-10T03:01:47;37.63;;;21.90;;
8066;SDS011;4076;48.076;9.118;2024-01-10T03:04:13;31.67;;;17.90;;
8066;SDS011;4076;48.076;9.118;2024-01-10T03:06:38;42.07;;;21.40;;
8066;SDS011;4076;48.076;9.118;2024-01-10T03:09:04;34.73;;;19.73;;
8066;SDS011;4076;48.076;9.118;2024-01-10T03:11:29;35.73;;;20.80;;
8066;SDS011;4076;48.076;9.118;2024-01-10T03:14:08;28.97;;;18.17;;
8066;SDS011;4076;48.076;9.118;2024-01-10T03:16:35;27.00;;;16.90;;
8066;SDS011;4076;48.076;9.118;2024-01-10T03:19:01;30.50;;;19.40;;
8066;SDS011;4076;48.076;9.118;2024-01-10T03:21:27;35.03;;;21.57;;
8066;SDS011;4076;48.076;9.118;2024-01-10T03:23:56;28.70;;;18.17;;
8066;SDS011;4076;48.076;9.118;2024-01-10T03:26:23;32.40;;;19.77;;
8066;SDS011;4076;48.076;9.118;2024-01-10T03:28:49;28.67;;;17.87;;
8066;SDS011;4076;48.076;9.118;2024-01-10T03:31:15;25.07;;;15.80;;
8066;SDS011;4076;48.076;9.118;2024-01-10T03:33:41;39.30;;;20.60;;
8066;SDS011;4076;48.076;9.118;2024-01-10T03:36:08;31.97;;;16.93;;
8066;SDS011;4076;48.076;9.118;2024-01-10T03:38:36;26.40;;;16.13;;
8066;SDS011;4076;48.076;9.118;2024-01-10T03:41:02;26.60;;;17.07;;
8066;SDS011;4076;48.076;9.118;2024-01-10T03:43:27;28.90;;;16.40;;
8066;SDS011;4076;48.076;9.118;2024-01-10T03:45:53;36.53;;;21.40;;
8066;SDS011;4076;48.076;9.118;2024-01-10T03:48:18;32.30;;;21.47;;
8066;SDS011;4076;48.076;9.118;2024-01-10T03:50:44;24.30;;;18.07;;
8066;SDS011;4076;48.076;9.118;2024-01-10T03:53:10;22.83;;;16.47;;
8066;SDS011;4076;48.076;9.118;2024-01-10T03:55:35;32.50;;;20.87;;
8066;SDS011;4076;48.076;9.118;2024-01-10T03:58:01;29.60;;;18.80;;
8066;SDS011;4076;48.076;9.118;2024-01-10T04:00:26;35.90;;;22.63;;
8066;SDS011;4076;48.076;9.118;2024-01-10T04:02:52;31.50;;;20.00;;
8066;SDS011;4076;48.076;9.118;2024-01-10T04:05:18;32.63;;;19.90;;
8066;SDS011;4076;48.076;9.118;2024-01-10T04:07:45;35.13;;;21.53;;
8066;SDS011;4076;48.076;9.118;2024-01-10T04:10:12;30.07;;;18.43;;
8066;SDS011;4076;48.076;9.118;2024-01-10T04:12:39;27.00;;;17.13;;
8066;SDS011;4076;48.076;9.118;2024-01-10T04:15:05;26.33;;;17.47;;
8066;SDS011;4076;48.076;9.118;2024-01-10T04:17:32;22.63;;;16.13;;
8066;SDS011;4076;48.076;9.118;2024-01-10T04:19:57;23.07;;;15.83;;
8066;SDS011;4076;48.076;9.118;2024-01-10T04:22:23;34.57;;;22.70;;
8066;SDS011;4076;48.076;9.118;2024-01-10T04:24:49;26.37;;;14.77;;
8066;SDS011;4076;48.076;9.118;2024-01-10T04:27:16;37.17;;;23.87;;
8066;SDS011;4076;48.076;9.118;2024-01-10T04:29:43;23.27;;;16.33;;
8066;SDS011;4076;48.076;9.118;2024-01-10T04:32:08;37.60;;;21.77;;
8066;SDS011;4076;48.076;9.118;2024-01-10T04:34:34;30.67;;;18.47;;
8066;SDS011;4076;48.076;9.118;2024-01-10T04:37:00;29.33;;;15.40;;
8066;SDS011;4076;48.076;9.118;2024-01-10T04:39:25;25.80;;;15.83;;
8066;SDS011;4076;48.076;9.118;2024-01-10T04:41:51;19.73;;;13.93;;
8066;SDS011;4076;48.076;9.118;2024-01-10T04:44:16;30.47;;;15.87;;
8066;SDS011;4076;48.076;9.118;2024-01-10T04:46:42;27.40;;;14.20;;
8066;SDS011;4076;48.076;9.118;2024-01-10T04:49:08;30.17;;;18.50;;
8066;SDS011;4076;48.076;9.118;2024-01-10T04:51:33;23.03;;;16.97;;
8066;SDS011;4076;48.076;9.118;2024-01-10T04:53:59;27.83;;;15.60;;
8066;SDS011;4076;48.076;9.118;2024-01-10T04:56:25;26.90;;;16.87;;
8066;SDS011;4076;48.076;9.118;2024-01-10T04:58:51;26.93;;;15.90;;
8066;SDS011;4076;48.076;9.118;2024-01-10T05:01:17;19.90;;;14.13;;
8066;SDS011;4076;48.076;9.118;2024-01-10T05:03:42;34.27;;;17.83;;
8066;SDS011;4076;48.076;9.118;2024-01-10T05:06:08;24.80;;;16.40;;
8066;SDS011;4076;48.076;9.118;2024-01-10T05:08:34;26.27;;;17.00;;
8066;SDS011;4076;48.076;9.118;2024-01-10T05:10:59;23.20;;;15.60;;
8066;SDS011;4076;48.076;9.118;2024-01-10T05:13:25;23.47;;;13.30;;
8066;SDS011;4076;48.076;9.118;2024-01-10T05:15:50;24.30;;;13.00;;
8066;SDS011;4076;48.076;9.118;2024-01-10T05:18:16;23.67;;;13.17;;
8066;SDS011;4076;48.076;9.118;2024-01-10T05:20:43;27.03;;;17.27;;
8066;SDS011;4076;48.076;9.118;2024-01-10T05:23:08;24.47;;;14.73;;
8066;SDS011;4076;48.076;9.118;2024-01-10T05:25:34;25.77;;;15.10;;
8066;SDS011;4076;48.076;9.118;2024-01-10T05:27:59;22.33;;;15.10;;
8066;SDS011;4076;48.076;9.118;2024-01-10T05:30:25;21.37;;;14.13;;
8066;SDS011;4076;48.076;9.118;2024-01-10T05:32:50;26.40;;;17.87;;
8066;SDS011;4076;48.076;9.118;2024-01-10T05:35:16;24.13;;;16.70;;
8066;SDS011;4076;48.076;9.118;2024-01-10T05:37:41;24.60;;;14.97;;
8066;SDS011;4076;48.076;9.118;2024-01-10T05:40:07;28.20;;;15.90;;
8066;SDS011;4076;48.076;9.118;2024-01-10T05:42:33;29.80;;;17.80;;
8066;SDS011;4076;48.076;9.118;2024-01-10T05:45:00;26.60;;;15.40;;
8066;SDS011;4076;48.076;9.118;2024-01-10T05:47:27;26.17;;;15.00;;
8066;SDS011;4076;48.076;9.118;2024-01-10T05:49:53;32.00;;;19.33;;
8066;SDS011;4076;48.076;9.118;2024-01-10T05:52:18;25.53;;;16.23;;
8066;SDS011;4076;48.076;9.118;2024-01-10T05:54:45;26.50;;;18.63;;
8066;SDS011;4076;48.076;9.118;2024-01-10T05:57:10;32.60;;;19.33;;
8066;SDS011;4076;48.076;9.118;2024-01-10T05:59:36;28.00;;;19.27;;
8066;SDS011;4076;48.076;9.118;2024-01-10T06:02:02;27.67;;;18.13;;
8066;SDS011;4076;48.076;9.118;2024-01-10T06:04:28;29.60;;;19.27;;
8066;SDS011;4076;48.076;9.118;2024-01-10T06:06:59;31.37;;;20.83;;
8066;SDS011;4076;48.076;9.118;2024-01-10T06:09:25;30.43;;;17.40;;
8066;SDS011;4076;48.076;9.118;2024-01-10T06:11:50;24.90;;;15.37;;
8066;SDS011;4076;48.076;9.118;2024-01-10T06:14:16;26.33;;;14.80;;
8066;SDS011;4076;48.076;9.118;2024-01-10T06:16:42;29.83;;;16.27;;
8066;SDS011;4076;48.076;9.118;2024-01-10T06:19:08;29.93;;;18.40;;
8066;SDS011;4076;48.076;9.118;2024-01-10T06:21:35;29.47;;;17.03;;
8066;SDS011;4076;48.076;9.118;2024-01-10T06:24:01;29.50;;;18.30;;
8066;SDS011;4076;48.076;9.118;2024-01-10T06:26:26;36.83;;;18.50;;
8066;SDS011;4076;48.076;9.118;2024-01-10T06:28:52;41.50;;;22.43;;
8066;SDS011;4076;48.076;9.118;2024-01-10T06:31:17;35.77;;;20.00;;
8066;SDS011;4076;48.076;9.118;2024-01-10T06:33:43;34.97;;;20.43;;
8066;SDS011;4076;48.076;9.118;2024-01-10T06:36:08;33.63;;;22.07;;
8066;SDS011;4076;48.076;9.118;2024-01-10T06:38:34;39.50;;;20.00;;
8066;SDS011;4076;48.076;9.118;2024-01-10T06:40:59;25.87;;;17.60;;
8066;SDS011;4076;48.076;9.118;2024-01-10T06:43:25;26.37;;;18.03;;
8066;SDS011;4076;48.076;9.118;2024-01-10T06:45:50;30.53;;;15.17;;
8066;SDS011;4076;48.076;9.118;2024-01-10T06:48:16;22.43;;;13.97;;
8066;SDS011;4076;48.076;9.118;2024-01-10T06:50:43;26.27;;;14.80;;
8066;SDS011;4076;48.076;9.118;2024-01-10T06:53:10;28.13;;;16.13;;
8066;SDS011;4076;48.076;9.118;2024-01-10T06:55:36;22.37;;;15.20;;
8066;SDS011;4076;48.076;9.118;2024-01-10T06:58:01;24.53;;;14.70;;
8066;SDS011;4076;48.076;9.118;2024-01-10T07:00:28;31.17;;;16.23;;
8066;SDS011;4076;48.076;9.118;2024-01-10T07:02:53;26.50;;;17.20;;
8066;SDS011;4076;48.076;9.118;2024-01-10T07:05:19;29.97;;;17.67;;
8066;SDS011;4076;48.076;9.118;2024-01-10T07:07:44;25.20;;;15.60;;
8066;SDS011;4076;48.076;9.118;2024-01-10T07:10:10;25.63;;;14.40;;
8066;SDS011;4076;48.076;9.118;2024-01-10T07:12:36;27.20;;;14.70;;
8066;SDS011;4076;48.076;9.118;2024-01-10T07:15:02;35.10;;;20.23;;
8066;SDS011;4076;48.076;9.118;2024-01-10T07:17:28;33.93;;;22.80;;
8066;SDS011;4076;48.076;9.118;2024-01-10T07:19:53;36.93;;;23.40;;
8066;SDS011;4076;48.076;9.118;2024-01-10T07:22:21;29.10;;;19.30;;
8066;SDS011;4076;48.076;9.118;2024-01-10T07:24:47;26.57;;;16.77;;
8066;SDS011;4076;48.076;9.118;2024-01-10T07:27:13;31.03;;;17.37;;
8066;SDS011;4076;48.076;9.118;2024-01-10T07:29:39;36.30;;;22.07;;
8066;SDS011;4076;48.076;9.118;2024-01-10T07:32:05;36.97;;;18.53;;
8066;SDS011;4076;48.076;9.118;2024-01-10T07:34:36;43.27;;;24.40;;
8066;SDS011;4076;48.076;9.118;2024-01-10T07:37:04;41.53;;;21.40;;
8066;SDS011;4076;48.076;9.118;2024-01-10T07:39:30;48.77;;;28.80;;
8066;SDS011;4076;48.076;9.118;2024-01-10T07:41:56;48.77;;;34.13;;
8066;SDS011;4076;48.076;9.118;2024-01-10T07:44:22;52.27;;;38.23;;
8066;SDS011;4076;48.076;9.118;2024-01-10T07:46:48;43.10;;;32.73;;
8066;SDS011;4076;48.076;9.118;2024-01-10T07:49:15;43.40;;;28.50;;
8066;SDS011;4076;48.076;9.118;2024-01-10T07:51:43;51.53;;;33.90;;
8066;SDS011;4076;48.076;9.118;2024-01-10T07:54:08;68.53;;;47.23;;
8066;SDS011;4076;48.076;9.118;2024-01-10T07:56:34;85.37;;;58.70;;
8066;SDS011;4076;48.076;9.118;2024-01-10T07:58:59;55.13;;;36.40;;
8066;SDS011;4076;48.076;9.118;2024-01-10T08:01:25;58.93;;;33.00;;
8066;SDS011;4076;48.076;9.118;2024-01-10T08:03:51;50.80;;;29.00;;
8066;SDS011;4076;48.076;9.118;2024-01-10T08:06:17;31.90;;;22.00;;
8066;SDS011;4076;48.076;9.118;2024-01-10T08:08:42;42.17;;;24.07;;
8066;SDS011;4076;48.076;9.118;2024-01-10T08:11:08;40.73;;;22.90;;
8066;SDS011;4076;48.076;9.118;2024-01-10T08:13:34;39.17;;;20.43;;
8066;SDS011;4076;48.076;9.118;2024-01-10T08:15:59;35.20;;;21.03;;
8066;SDS011;4076;48.076;9.118;2024-01-10T08:18:25;39.77;;;21.93;;
8066;SDS011;4076;48.076;9.118;2024-01-10T08:20:50;36.07;;;21.37;;
8066;SDS011;4076;48.076;9.118;2024-01-10T08:23:16;36.83;;;23.03;;
8066;SDS011;4076;48.076;9.118;2024-01-10T08:25:43;32.40;;;23.73;;
8066;SDS011;4076;48.076;9.118;2024-01-10T08:28:09;36.37;;;21.30;;
8066;SDS011;4076;48.076;9.118;2024-01-10T08:30:35;37.17;;;23.23;;
8066;SDS011;4076;48.076;9.118;2024-01-10T08:33:00;36.43;;;22.87;;
8066;SDS011;4076;48.076;9.118;2024-01-10T08:35:26;40.07;;;23.30;;
8066;SDS011;4076;48.076;9.118;2024-01-10T08:37:52;39.73;;;25.80;;
8066;SDS011;4076;48.076;9.118;2024-01-10T08:40:17;32.83;;;19.83;;
8066;SDS011;4076;48.076;9.118;2024-01-10T08:42:43;34.67;;;19.83;;
8066;SDS011;4076;48.076;9.118;2024-01-10T08:45:09;36.60;;;22.97;;
8066;SDS011;4076;48.076;9.118;2024-01-10T08:47:36;38.20;;;24.93;;
8066;SDS011;4076;48.076;9.118;2024-01-10T08:50:02;36.93;;;22.20;;
8066;SDS011;4076;48.076;9.118;2024-01-10T08:52:30;42.90;;;27.40;;
8066;SDS011;4076;48.076;9.118;2024-01-10T08:54:56;32.43;;;21.40;;
8066;SDS011;4076;48.076;9.118;2024-01-10T08:57:22;36.67;;;22.37;;
8066;SDS011;4076;48.076;9.118;2024-01-10T08:59:47;34.33;;;22.83;;
8066;SDS011;4076;48.076;9.118;2024-01-10T09:02:13;33.90;;;22.83;;
8066;SDS011;4076;48.076;9.118;2024-01-10T09:04:39;47.83;;;29.23;;
8066;SDS011;4076;48.076;9.118;2024-01-10T09:07:05;43.77;;;23.23;;
8066;SDS011;4076;48.076;9.118;2024-01-10T09:09:31;25.60;;;18.30;;
8066;SDS011;4076;48.076;9.118;2024-01-10T09:11:57;38.70;;;22.87;;
8066;SDS011;4076;48.076;9.118;2024-01-10T09:14:23;39.90;;;26.30;;
8066;SDS011;4076;48.076;9.118;2024-01-10T09:16:48;38.67;;;24.27;;
8066;SDS011;4076;48.076;9.118;2024-01-10T09:19:14;43.30;;;23.90;;
8066;SDS011;4076;48.076;9.118;2024-01-10T09:21:40;46.20;;;24.77;;
8066;SDS011;4076;48.076;9.118;2024-01-10T09:24:05;38.43;;;26.13;;
8066;SDS011;4076;48.076;9.118;2024-01-10T09:26:34;41.60;;;25.93;;
8066;SDS011;4076;48.076;9.118;2024-01-10T09:28:59;36.40;;;25.33;;
8066;SDS011;4076;48.076;9.118;2024-01-10T09:31:25;33.73;;;20.73;;
8066;SDS011;4076;48.076;9.118;2024-01-10T09:33:50;39.47;;;23.53;;
8066;SDS011;4076;48.076;9.118;2024-01-10T09:36:16;35.30;;;21.00;;
8066;SDS011;4076;48.076;9.118;2024-01-10T09:38:42;40.93;;;22.73;;
8066;SDS011;4076;48.076;9.118;2024-01-10T09:41:07;40.70;;;25.33;;
8066;SDS011;4076;48.076;9.118;2024-01-10T09:43:35;38.50;;;21.80;;
8066;SDS011;4076;48.076;9.118;2024-01-10T09:46:01;39.20;;;22.30;;
8066;SDS011;4076;48.076;9.118;2024-01-10T09:48:29;27.93;;;19.33;;
8066;SDS011;4076;48.076;9.118;2024-01-10T09:50:55;28.53;;;15.03;;
8066;SDS011;4076;48.076;9.118;2024-01-10T09:53:22;42.53;;;23.60;;
8066;SDS011;4076;48.076;9.118;2024-01-10T09:55:49;37.13;;;20.73;;
8066;SDS011;4076;48.076;9.118;2024-01-10T09:58:15;33.97;;;21.43;;
8066;SDS011;4076;48.076;9.118;2024-01-10T10:00:41;36.63;;;22.00;;
8066;SDS011;4076;48.076;9.118;2024-01-10T10:03:10;30.93;;;19.33;;
8066;SDS011;4076;48.076;9.118;2024-01-10T10:05:37;42.47;;;22.87;;
8066;SDS011;4076;48.076;9.118;2024-01-10T10:08:06;33.27;;;21.23;;
8066;SDS011;4076;48.076;9.118;2024-01-10T10:10:32;31.00;;;21.33;;
8066;SDS011;4076;48.076;9.118;2024-01-10T10:12:57;39.43;;;23.60;;
8066;SDS011;4076;48.076;9.118;2024-01-10T10:15:23;39.00;;;25.10;;
8066;SDS011;4076;48.076;9.118;2024-01-10T10:17:53;34.73;;;24.03;;
8066;SDS011;4076;48.076;9.118;2024-01-10T10:20:26;39.17;;;24.07;;
8066;SDS011;4076;48.076;9.118;2024-01-10T10:23:00;36.77;;;25.30;;
8066;SDS011;4076;48.076;9.118;2024-01-10T10:25:31;44.90;;;32.10;;
8066;SDS011;4076;48.076;9.118;2024-01-10T10:28:10;35.30;;;21.60;;
8066;SDS011;4076;48.076;9.118;2024-01-10T10:30:36;30.17;;;22.97;;
8066;SDS011;4076;48.076;9.118;2024-01-10T10:33:02;36.13;;;22.63;;
8066;SDS011;4076;48.076;9.118;2024-01-10T10:35:28;31.70;;;22.20;;
8066;SDS011;4076;48.076;9.118;2024-01-10T10:37:54;29.67;;;18.73;;
8066;SDS011;4076;48.076;9.118;2024-01-10T10:40:20;30.37;;;18.47;;
8066;SDS011;4076;48.076;9.118;2024-01-10T10:42:47;33.90;;;20.53;;
8066;SDS011;4076;48.076;9.118;2024-01-10T10:45:14;31.00;;;20.20;;
8066;SDS011;4076;48.076;9.118;2024-01-10T10:47:45;34.80;;;23.83;;
8066;SDS011;4076;48.076;9.118;2024-01-10T10:50:16;39.10;;;26.53;;
8066;SDS011;4076;48.076;9.118;2024-01-10T10:52:46;32.00;;;20.93;;
8066;SDS011;4076;48.076;9.118;2024-01-10T10:55:14;40.67;;;21.80;;
8066;SDS011;4076;48.076;9.118;2024-01-10T10:57:49;40.40;;;24.57;;
8066;SDS011;4076;48.076;9.118;2024-01-10T11:00:20;33.97;;;22.27;;
8066;SDS011;4076;48.076;9.118;2024-01-10T11:02:47;34.13;;;21.90;;
8066;SDS011;4076;48.076;9.118;2024-01-10T11:05:13;39.33;;;23.60;;
8066;SDS011;4076;48.076;9.118;2024-01-10T11:07:39;34.70;;;19.60;;
8066;SDS011;4076;48.076;9.118;2024-01-10T11:10:08;45.43;;;28.80;;
8066;SDS011;4076;48.076;9.118;2024-01-10T11:15:54;32.00;;;20.87;;
8066;SDS011;4076;48.076;9.118;2024-01-10T11:18:46;38.00;;;23.30;;
8066;SDS011;4076;48.076;9.118;2024-01-10T11:23:59;32.40;;;20.43;;
8066;SDS011;4076;48.076;9.118;2024-01-10T11:26:25;34.10;;;21.90;;
8066;SDS011;4076;48.076;9.118;2024-01-10T11:28:51;36.63;;;27.90;;
8066;SDS011;4076;48.076;9.118;2024-01-10T11:31:26;33.93;;;21.57;;
8066;SDS011;4076;48.076;9.118;2024-01-10T11:33:54;32.33;;;22.90;;
8066;SDS011;4076;48.076;9.118;2024-01-10T11:36:21;30.10;;;20.50;;
8066;SDS011;4076;48.076;9.118;2024-01-10T11:41:22;23.30;;;13.93;;
8066;SDS011;4076;48.076;9.118;2024-01-10T11:46:37;25.40;;;16.67;;
8066;SDS011;4076;48.076;9.118;2024-01-10T11:49:09;25.13;;;18.20;;
8066;SDS011;4076;48.076;9.118;2024-01-10T11:51:43;28.13;;;19.23;;
8066;SDS011;4076;48.076;9.118;2024-01-10T11:54:34;30.47;;;18.50;;
8066;SDS011;4076;48.076;9.118;2024-01-10T11:57:20;29.60;;;20.77;;
8066;SDS011;4076;48.076;9.118;2024-01-10T11:59:47;34.47;;;23.47;;
8066;SDS011;4076;48.076;9.118;2024-01-10T12:02:16;32.40;;;24.30;;
8066;SDS011;4076;48.076;9.118;2024-01-10T12:04:43;30.70;;;22.13;;
8066;SDS011;4076;48.076;9.118;2024-01-10T12:07:11;30.77;;;20.80;;
8066;SDS011;4076;48.076;9.118;2024-01-10T12:09:37;30.20;;;20.97;;
8066;SDS011;4076;48.076;9.118;2024-01-10T12:12:03;25.70;;;15.57;;
8066;SDS011;4076;48.076;9.118;2024-01-10T12:14:30;26.53;;;16.67;;
8066;SDS011;4076;48.076;9.118;2024-01-10T12:16:58;21.90;;;16.10;;
8066;SDS011;4076;48.076;9.118;2024-01-10T12:19:25;19.60;;;14.37;;
8066;SDS011;4076;48.076;9.118;2024-01-10T12:21:51;27.50;;;16.37;;
8066;SDS011;4076;48.076;9.118;2024-01-10T12:24:17;24.63;;;14.53;;
8066;SDS011;4076;48.076;9.118;2024-01-10T12:26:47;22.90;;;16.70;;
8066;SDS011;4076;48.076;9.118;2024-01-10T12:29:13;20.90;;;14.23;;
8066;SDS011;4076;48.076;9.118;2024-01-10T12:31:43;21.37;;;16.10;;
8066;SDS011;4076;48.076;9.118;2024-01-10T12:34:10;27.57;;;18.17;;
8066;SDS011;4076;48.076;9.118;2024-01-10T12:36:36;22.77;;;15.47;;
8066;SDS011;4076;48.076;9.118;2024-01-10T12:39:01;24.13;;;15.67;;
8066;SDS011;4076;48.076;9.118;2024-01-10T12:41:28;27.40;;;16.97;;
8066;SDS011;4076;48.076;9.118;2024-01-10T12:43:53;20.13;;;12.57;;
8066;SDS011;4076;48.076;9.118;2024-01-10T12:46:22;20.77;;;14.60;;
8066;SDS011;4076;48.076;9.118;2024-01-10T12:49:04;26.43;;;18.20;;
8066;SDS011;4076;48.076;9.118;2024-01-10T12:51:31;17.47;;;13.43;;
8066;SDS011;4076;48.076;9.118;2024-01-10T12:53:59;18.00;;;13.80;;
8066;SDS011;4076;48.076;9.118;2024-01-10T12:56:25;18.10;;;12.80;;
8066;SDS011;4076;48.076;9.118;2024-01-10T12:58:51;20.23;;;15.70;;
8066;SDS011;4076;48.076;9.118;2024-01-10T13:01:17;25.83;;;15.27;;
8066;SDS011;4076;48.076;9.118;2024-01-10T13:03:42;24.93;;;16.23;;
8066;SDS011;4076;48.076;9.118;2024-01-10T13:06:08;24.27;;;15.77;;
8066;SDS011;4076;48.076;9.118;2024-01-10T13:08:34;19.80;;;15.97;;
8066;SDS011;4076;48.076;9.118;2024-01-10T13:11:00;23.53;;;15.10;;
8066;SDS011;4076;48.076;9.118;2024-01-10T13:13:25;21.87;;;14.17;;
8066;SDS011;4076;48.076;9.118;2024-01-10T13:15:51;20.20;;;14.30;;
8066;SDS011;4076;48.076;9.118;2024-01-10T13:18:17;29.13;;;15.60;;
8066;SDS011;4076;48.076;9.118;2024-01-10T13:20:43;23.77;;;15.17;;
8066;SDS011;4076;48.076;9.118;2024-01-10T13:23:09;23.10;;;16.80;;
8066;SDS011;4076;48.076;9.118;2024-01-10T13:25:35;24.73;;;16.83;;
8066;SDS011;4076;48.076;9.118;2024-01-10T13:28:02;28.67;;;18.77;;
8066;SDS011;4076;48.076;9.118;2024-01-10T13:30:31;33.30;;;18.07;;
8066;SDS011;4076;48.076;9.118;2024-01-10T13:32:56;26.57;;;18.20;;
8066;SDS011;4076;48.076;9.118;2024-01-10T13:35:23;28.23;;;17.90;;
8066;SDS011;4076;48.076;9.118;2024-01-10T13:37:48;21.27;;;15.70;;
8066;SDS011;4076;48.076;9.118;2024-01-10T13:40:14;24.83;;;17.93;;
8066;SDS011;4076;48.076;9.118;2024-01-10T13:42:40;28.67;;;20.63;;
8066;SDS011;4076;48.076;9.118;2024-01-10T13:45:07;26.70;;;18.30;;
8066;SDS011;4076;48.076;9.118;2024-01-10T13:47:36;36.73;;;23.07;;
8066;SDS011;4076;48.076;9.118;2024-01-10T13:50:03;32.10;;;20.03;;
8066;SDS011;4076;48.076;9.118;2024-01-10T13:52:30;32.77;;;19.63;;
8066;SDS011;4076;48.076;9.118;2024-01-10T13:54:56;24.50;;;16.10;;
8066;SDS011;4076;48.076;9.118;2024-01-10T13:57:23;30.30;;;20.10;;
8066;SDS011;4076;48.076;9.118;2024-01-10T13:59:48;24.67;;;16.90;;
8066;SDS011;4076;48.076;9.118;2024-01-10T14:02:14;27.50;;;15.43;;
8066;SDS011;4076;48.076;9.118;2024-01-10T14:04:39;24.67;;;17.07;;
8066;SDS011;4076;48.076;9.118;2024-01-10T14:07:06;24.63;;;16.93;;
8066;SDS011;4076;48.076;9.118;2024-01-10T14:09:31;35.03;;;22.47;;
8066;SDS011;4076;48.076;9.118;2024-01-10T14:11:57;32.60;;;22.10;;
8066;SDS011;4076;48.076;9.118;2024-01-10T14:14:22;42.27;;;28.57;;
8066;SDS011;4076;48.076;9.118;2024-01-10T14:16:48;45.07;;;26.83;;
8066;SDS011;4076;48.076;9.118;2024-01-10T14:19:14;51.90;;;28.73;;
8066;SDS011;4076;48.076;9.118;2024-01-10T14:21:42;43.17;;;28.13;;
8066;SDS011;4076;48.076;9.118;2024-01-10T14:24:08;37.70;;;24.80;;
8066;SDS011;4076;48.076;9.118;2024-01-10T14:26:33;41.20;;;29.70;;
8066;SDS011;4076;48.076;9.118;2024-01-10T14:29:00;42.90;;;24.40;;
8066;SDS011;4076;48.076;9.118;2024-01-10T14:31:26;44.97;;;28.67;;
8066;SDS011;4076;48.076;9.118;2024-01-10T14:33:51;40.53;;;28.10;;
8066;SDS011;4076;48.076;9.118;2024-01-10T14:36:17;41.33;;;22.57;;
8066;SDS011;4076;48.076;9.118;2024-01-10T14:38:43;31.50;;;22.00;;
8066;SDS011;4076;48.076;9.118;2024-01-10T14:41:08;35.03;;;21.70;;
8066;SDS011;4076;48.076;9.118;2024-01-10T14:43:36;31.83;;;21.97;;
8066;SDS011;4076;48.076;9.118;2024-01-10T14:46:02;35.00;;;20.20;;
8066;SDS011;4076;48.076;9.118;2024-01-10T14:48:27;43.73;;;30.30;;
8066;SDS011;4076;48.076;9.118;2024-01-10T14:50:53;45.03;;;33.87;;
8066;SDS011;4076;48.076;9.118;2024-01-10T14:53:19;41.93;;;26.50;;
8066;SDS011;4076;48.076;9.118;2024-01-10T14:55:44;40.00;;;26.47;;